Zografos, Greece
Current Conditions -  °F | °C
As of 12:50 PM on Saturday 25 Oct 2014 (Local Time) from LGTS Reporting Station
Broken Clouds Broken Clouds  
Wind Chill: 55°   Ceiling: 3500
Heat Index: 55°   Visibility: 6mi
Dew Point: 43°   Wind: 18mph
Humidity: 63%   Direction: 330°NNW
Pressure: 29.88"   Gusts: NA
Location:  40.28°N, 23.25°E
Report Text: LGTS 250950Z 33016KT 9999 FEW025 BKN035 BKN080 13/06 Q1012 NOSIG
Loading
Personal Weather Stations






























Interactive Weather Map New forecast layout! Learn more

10-Day Weather Forecast

Advertisements
Track Severe Weather on mobile